Time;durP1;ratioP1;P1;durP2;ratioP2;P2;SDS_P1;SDS_P2;PMS_P1;PMS_P2;Temp;Humidity;BMP_temperature;BMP_pressure;BME280_temperature;BME280_humidity;BME280_pressure;Samples;Min_cycle;Max_cycle;Signal;HPM_P1;HPM_P2
2021/06/25 00:03:41;;;;;;;1.40;0.80;;;19.20;44.50;;;;;;10418937;28;20258;-78
2021/06/25 00:08:46;;;;;;;0.90;0.90;;;19.20;44.60;;;;;;10418427;28;20222;-78
2021/06/25 00:13:49;;;;;;;1.20;0.90;;;19.10;45.40;;;;;;10429933;28;20225;-78
2021/06/25 00:18:52;;;;;;;2.20;1.00;;;19.20;45.00;;;;;;10432490;28;20724;-78
2021/06/25 00:23:57;;;;;;;1.80;0.90;;;19.20;45.80;;;;;;10425159;28;20705;-78
2021/06/25 00:29:00;;;;;;;0.90;0.90;;;19.20;45.80;;;;;;10417951;28;20221;-78
2021/06/25 00:34:04;;;;;;;0.93;0.93;;;19.20;45.10;;;;;;10434425;28;20217;-78
2021/06/25 00:39:09;;;;;;;1.20;1.20;;;19.20;45.20;;;;;;10425905;28;20222;-78
2021/06/25 00:44:16;;;;;;;1.17;1.07;;;19.30;46.00;;;;;;10423202;28;20712;-79
2021/06/25 00:49:19;;;;;;;1.13;1.10;;;19.30;46.70;;;;;;10422983;28;20224;-77
2021/06/25 00:54:24;;;;;;;2.10;0.97;;;19.40;45.50;;;;;;10430199;28;20697;-77
2021/06/25 00:59:27;;;;;;;1.03;0.93;;;19.40;46.10;;;;;;10413020;28;20224;-78
2021/06/25 01:04:31;;;;;;;0.90;0.80;;;19.40;45.30;;;;;;10418201;28;20232;-78
2021/06/25 01:09:37;;;;;;;0.97;0.97;;;19.40;45.30;;;;;;10421665;28;20321;-78
2021/06/25 01:14:40;;;;;;;1.20;1.10;;;19.40;46.30;;;;;;10429801;28;20217;-79
2021/06/25 01:19:43;;;;;;;1.80;0.90;;;19.40;45.60;;;;;;10423247;28;20260;-78
2021/06/25 01:24:48;;;;;;;1.20;0.90;;;19.30;45.60;;;;;;10431632;28;20221;-79
2021/06/25 01:29:55;;;;;;;1.40;0.87;;;19.40;46.10;;;;;;10418895;28;20232;-78
2021/06/25 01:35:02;;;;;;;0.90;0.90;;;19.40;45.70;;;;;;10420225;28;20217;-78
2021/06/25 01:40:09;;;;;;;1.50;0.90;;;19.30;46.20;;;;;;10431591;28;20212;-79
2021/06/25 01:45:15;;;;;;;1.60;1.10;;;19.30;46.60;;;;;;10432846;28;20225;-78
2021/06/25 01:50:21;;;;;;;1.37;1.00;;;19.30;46.00;;;;;;10433226;28;20226;-78
2021/06/25 01:55:26;;;;;;;1.13;1.03;;;19.30;46.10;;;;;;10429535;28;20265;-78
2021/06/25 02:00:30;;;;;;;1.80;1.00;;;19.30;46.50;;;;;;10431916;28;20235;-78
2021/06/25 02:05:34;;;;;;;1.03;1.03;;;19.30;45.80;;;;;;10430443;28;20770;-79
2021/06/25 02:10:38;;;;;;;2.60;1.30;;;19.30;45.80;;;;;;10425797;28;20221;-78
2021/06/25 02:15:42;;;;;;;1.37;1.20;;;19.30;46.60;;;;;;10435104;28;20229;-78
2021/06/25 02:20:45;;;;;;;1.73;1.33;;;19.30;46.10;;;;;;10433445;28;20697;-78
2021/06/25 02:25:50;;;;;;;1.50;1.40;;;19.30;46.30;;;;;;10426594;28;20689;-78
2021/06/25 02:30:53;;;;;;;1.50;1.40;;;19.40;47.00;;;;;;10427518;28;20221;-77
2021/06/25 02:35:57;;;;;;;1.50;1.40;;;19.30;46.30;;;;;;10423102;28;20697;-78
2021/06/25 02:41:02;;;;;;;1.80;1.47;;;19.30;46.30;;;;;;10428496;28;20217;-78
2021/06/25 02:46:05;;;;;;;1.57;1.47;;;19.30;47.00;;;;;;10434621;28;20241;-78
2021/06/25 02:51:08;;;;;;;1.97;1.50;;;19.30;46.60;;;;;;10425234;28;20697;-78
2021/06/25 02:56:13;;;;;;;1.30;1.30;;;19.20;46.60;;;;;;10436640;28;20855;-78
2021/06/25 03:01:16;;;;;;;1.53;1.43;;;19.20;47.50;;;;;;10431470;28;20224;-78
2021/06/25 03:06:20;;;;;;;1.30;1.30;;;19.20;46.70;;;;;;10423371;28;20233;-78
2021/06/25 03:11:24;;;;;;;1.40;1.30;;;19.20;46.50;;;;;;10425949;28;20240;-78
2021/06/25 03:16:28;;;;;;;1.33;1.23;;;19.10;47.50;;;;;;10433000;28;20247;-78
2021/06/25 03:21:31;;;;;;;1.20;1.10;;;19.10;46.90;;;;;;10427017;28;20323;-78
2021/06/25 03:26:36;;;;;;;1.53;1.37;;;19.10;47.00;;;;;;10429876;28;20225;-78
2021/06/25 03:31:39;;;;;;;1.07;1.07;;;19.10;47.90;;;;;;10427498;28;20222;-78
2021/06/25 03:36:42;;;;;;;1.53;1.10;;;19.10;47.00;;;;;;10424671;28;20225;-78
2021/06/25 03:41:47;;;;;;;1.47;1.20;;;19.00;46.90;;;;;;10421281;28;20225;-78
2021/06/25 03:46:51;;;;;;;1.40;1.30;;;19.00;47.70;;;;;;10428373;28;20576;-78
2021/06/25 03:51:54;;;;;;;1.40;1.30;;;19.00;47.20;;;;;;10431472;28;20823;-78
2021/06/25 03:56:59;;;;;;;1.40;1.30;;;18.90;47.40;;;;;;10424864;28;20228;-78
2021/06/25 04:02:03;;;;;;;1.47;1.30;;;18.90;47.80;;;;;;10431947;28;20260;-78
2021/06/25 04:07:07;;;;;;;1.40;1.30;;;18.90;47.40;;;;;;10417844;28;20225;-78
2021/06/25 04:12:12;;;;;;;1.47;1.37;;;18.90;47.70;;;;;;10430072;28;20639;-79
2021/06/25 04:17:15;;;;;;;1.20;1.20;;;18.90;47.80;;;;;;10428735;28;20228;-78
2021/06/25 04:22:20;;;;;;;1.47;1.37;;;19.00;47.40;;;;;;10422197;28;20222;-80
2021/06/25 04:27:24;;;;;;;1.30;1.20;;;19.00;47.50;;;;;;10432104;28;20228;-78
2021/06/25 04:32:28;;;;;;;1.50;1.10;;;18.90;47.80;;;;;;10432167;28;20228;-78
2021/06/25 04:37:32;;;;;;;1.10;1.10;;;19.00;47.30;;;;;;10421535;28;20229;-78
2021/06/25 04:42:36;;;;;;;1.23;1.13;;;19.00;47.80;;;;;;10427124;28;21040;-78
2021/06/25 04:47:41;;;;;;;1.00;1.00;;;19.00;47.90;;;;;;10427261;28;20228;-79
2021/06/25 04:52:44;;;;;;;1.20;1.20;;;18.90;47.80;;;;;;10426170;28;20228;-78
2021/06/25 04:57:54;;;;;;;1.10;1.10;;;18.90;47.80;;;;;;10422915;28;20243;-78
2021/06/25 05:02:57;;;;;;;2.07;1.20;;;18.90;48.60;;;;;;10423995;28;20228;-78
2021/06/25 05:08:00;;;;;;;1.20;1.20;;;18.90;47.80;;;;;;10425892;28;20229;-78
2021/06/25 05:13:06;;;;;;;1.43;1.33;;;18.80;47.70;;;;;;10430018;28;20213;-78
2021/06/25 05:18:14;;;;;;;1.67;1.57;;;18.90;47.80;;;;;;10428977;28;20221;-78
2021/06/25 05:23:38;;;;;;;1.63;1.53;;;18.80;48.60;;;;;;10416445;28;20228;-78
2021/06/25 05:28:42;;;;;;;1.63;1.53;;;18.80;47.70;;;;;;10415370;28;20336;-78
2021/06/25 05:33:49;;;;;;;1.77;1.60;;;18.80;48.10;;;;;;10429267;28;20221;-78
2021/06/25 05:38:52;;;;;;;1.77;1.67;;;18.80;49.00;;;;;;10422884;28;20747;-78
2021/06/25 05:43:57;;;;;;;1.77;1.67;;;18.80;47.90;;;;;;10420073;28;20217;-78
2021/06/25 05:49:00;;;;;;;1.67;1.57;;;18.80;48.80;;;;;;10424418;28;20233;-78
2021/06/25 05:54:03;;;;;;;1.77;1.67;;;18.90;48.10;;;;;;10428892;28;20593;-78
2021/06/25 05:59:08;;;;;;;1.90;1.80;;;18.90;48.40;;;;;;10417162;28;20222;-78
2021/06/25 06:04:11;;;;;;;2.23;2.03;;;19.00;49.20;;;;;;10418629;28;20880;-78
2021/06/25 06:09:15;;;;;;;1.63;1.53;;;19.10;48.50;;;;;;10415473;28;20225;-78
2021/06/25 06:14:19;;;;;;;2.00;1.90;;;19.10;48.30;;;;;;10420803;28;20240;-76
2021/06/25 06:19:23;;;;;;;1.90;1.80;;;19.20;49.00;;;;;;10425363;28;20316;-77
2021/06/25 06:35:10;;;;;;;1.90;1.80;;;19.50;48.90;;;;;;10425571;28;20665;-78
2021/06/25 06:40:15;;;;;;;2.27;2.07;;;19.60;48.40;;;;;;10420439;28;20236;-78
2021/06/25 06:45:20;;;;;;;2.13;2.03;;;19.70;48.50;;;;;;10424866;28;20240;-77
2021/06/25 06:50:23;;;;;;;1.87;1.77;;;19.80;49.00;;;;;;10414981;28;20716;-80
2021/06/25 06:55:27;;;;;;;1.93;1.83;;;19.90;48.70;;;;;;10417058;28;20240;-78
2021/06/25 07:00:32;;;;;;;1.67;1.57;;;20.00;48.70;;;;;;10417025;28;20225;-75
2021/06/25 07:05:55;;;;;;;2.17;1.83;;;20.10;48.80;;;;;;10428031;28;20217;-74
2021/06/25 07:10:59;;;;;;;1.80;1.70;;;20.10;48.80;;;;;;10431602;28;20229;-75
2021/06/25 07:16:04;;;;;;;1.80;1.70;;;20.20;48.90;;;;;;10432676;28;20744;-75
2021/06/25 07:21:08;;;;;;;1.80;1.70;;;20.40;48.90;;;;;;10423780;28;20632;-74
2021/06/25 07:26:11;;;;;;;1.67;1.57;;;20.40;48.30;;;;;;10423885;28;20221;-73
2021/06/25 07:31:16;;;;;;;2.57;1.70;;;20.50;47.70;;;;;;10431103;28;20771;-77
2021/06/25 07:36:20;;;;;;;1.70;1.60;;;20.50;47.90;;;;;;10429860;28;20585;-77
2021/06/25 07:41:23;;;;;;;2.10;1.90;;;20.60;47.90;;;;;;10426603;28;20221;-77
2021/06/25 07:46:28;;;;;;;1.87;1.77;;;20.70;48.20;;;;;;10421014;28;20225;-78
2021/06/25 07:51:32;;;;;;;1.73;1.63;;;20.80;48.00;;;;;;10429087;28;20233;-78
2021/06/25 07:56:35;;;;;;;1.70;1.60;;;20.90;47.70;;;;;;10428652;28;20225;-76
2021/06/25 08:01:39;;;;;;;1.70;1.60;;;21.00;47.50;;;;;;10428090;28;20340;-75
2021/06/25 08:06:45;;;;;;;1.67;1.57;;;21.00;47.70;;;;;;10424870;28;20593;-73
2021/06/25 08:11:49;;;;;;;1.50;1.40;;;21.10;46.90;;;;;;10423621;28;20700;-73
2021/06/25 08:16:53;;;;;;;1.70;1.60;;;21.20;46.50;;;;;;10426739;28;20252;-74
2021/06/25 08:21:57;;;;;;;1.70;1.60;;;21.20;46.80;;;;;;10427069;28;20225;-74
2021/06/25 08:27:00;;;;;;;1.57;1.30;;;21.30;46.70;;;;;;10429792;28;20224;-75
2021/06/25 08:32:05;;;;;;;1.50;1.40;;;21.40;46.20;;;;;;10429295;28;20217;-74
2021/06/25 08:37:08;;;;;;;1.40;1.30;;;21.50;47.10;;;;;;10426423;28;20307;-77
2021/06/25 08:42:13;;;;;;;1.67;1.57;;;21.60;46.30;;;;;;10427470;28;20236;-76
2021/06/25 08:47:18;;;;;;;1.63;1.53;;;21.70;46.30;;;;;;10431680;28;20229;-75
2021/06/25 08:52:21;;;;;;;2.13;2.00;;;21.90;46.00;;;;;;10424337;28;20213;-76
2021/06/25 08:57:24;;;;;;;1.67;1.47;;;21.90;45.60;;;;;;10419984;28;20224;-74
2021/06/25 09:02:36;;;;;;;1.93;1.50;;;21.90;45.30;;;;;;10423112;28;20689;-75
2021/06/25 09:07:41;;;;;;;1.77;1.67;;;22.00;45.20;;;;;;10419599;28;20224;-74
2021/06/25 09:13:02;;;;;;;1.30;1.30;;;22.20;45.60;;;;;;10440121;28;20337;-76
2021/06/25 09:18:08;;;;;;;1.60;1.50;;;22.40;44.60;;;;;;10436850;28;20736;-78
2021/06/25 09:23:14;;;;;;;1.57;1.47;;;22.60;44.10;;;;;;10423779;28;20717;-78
2021/06/25 09:28:22;;;;;;;1.17;1.17;;;22.60;44.30;;;;;;10427090;28;20320;-79
2021/06/25 09:33:27;;;;;;;1.30;1.20;;;22.60;43.30;;;;;;10415674;28;20232;-76
2021/06/25 09:38:35;;;;;;;1.30;1.20;;;22.60;44.00;;;;;;10419448;28;20257;-76
2021/06/25 09:43:38;;;;;;;1.40;1.40;;;22.70;44.50;;;;;;10431319;28;20221;-76
2021/06/25 09:48:54;;;;;;;1.47;1.37;;;22.80;44.30;;;;;;10418856;28;20228;-77
2021/06/25 09:54:06;;;;;;;1.80;1.70;;;22.90;44.30;;;;;;10420918;28;20229;-75
2021/06/25 09:59:45;;;;;;;1.90;1.80;;;22.90;43.80;;;;;;10429181;28;20223;-77
2021/06/25 10:04:52;;;;;;;2.00;1.90;;;23.00;43.50;;;;;;10428940;28;20942;-78
2021/06/25 10:09:57;;;;;;;2.13;1.93;;;23.00;43.00;;;;;;10427332;28;20221;-78
2021/06/25 10:15:03;;;;;;;1.93;1.83;;;22.90;43.40;;;;;;10423673;28;20214;-77
2021/06/25 10:20:10;;;;;;;2.07;1.83;;;22.80;43.00;;;;;;10420881;28;20236;-78
2021/06/25 10:25:14;;;;;;;1.50;1.40;;;22.80;43.60;;;;;;10436564;28;20227;-77
2021/06/25 10:30:20;;;;;;;1.60;1.50;;;22.80;43.60;;;;;;10439016;28;20235;-80
2021/06/25 10:35:25;;;;;;;1.67;1.57;;;22.90;43.20;;;;;;10421906;28;20779;-76
2021/06/25 10:40:29;;;;;;;1.30;1.30;;;23.00;43.50;;;;;;10425677;28;20230;-77
2021/06/25 10:45:40;;;;;;;1.70;1.60;;;23.30;43.80;;;;;;10419304;28;20240;-77
2021/06/25 10:50:45;;;;;;;1.33;1.33;;;23.60;43.20;;;;;;10429620;28;20720;-77
2021/06/25 10:56:21;;;;;;;1.47;1.40;;;23.90;43.80;;;;;;10440952;28;20701;-76
2021/06/25 11:01:48;;;;;;;1.60;1.50;;;24.30;43.30;;;;;;10413702;28;20690;-77
2021/06/25 11:06:53;;;;;;;1.40;1.30;;;24.50;41.40;;;;;;10422787;28;20716;-75
2021/06/25 11:12:17;;;;;;;1.40;1.30;;;24.70;40.70;;;;;;10425996;28;20225;-75
2021/06/25 11:17:49;;;;;;;1.50;1.50;;;24.80;40.70;;;;;;10430221;28;21181;-74
2021/06/25 11:23:07;;;;;;;1.60;1.50;;;24.80;40.70;;;;;;10427927;28;20309;-74
2021/06/25 11:28:19;;;;;;;1.70;1.60;;;24.70;40.40;;;;;;10427415;28;20245;-76
2021/06/25 11:33:30;;;;;;;1.87;1.50;;;24.40;40.40;;;;;;10428752;28;20233;-77
2021/06/25 11:38:54;;;;;;;1.60;1.50;;;24.20;40.20;;;;;;10437855;28;20233;-76
2021/06/25 11:43:59;;;;;;;1.60;1.50;;;24.10;40.10;;;;;;10423379;28;20227;-76
2021/06/25 11:49:03;;;;;;;1.90;1.73;;;24.10;41.80;;;;;;10430507;28;20221;-76
2021/06/25 11:54:09;;;;;;;1.33;1.33;;;24.20;41.50;;;;;;10422339;28;20747;-75
2021/06/25 11:59:14;;;;;;;1.47;1.40;;;24.40;40.40;;;;;;10424711;28;20227;-74
2021/06/25 12:04:35;;;;;;;1.17;1.13;;;24.50;40.50;;;;;;10423850;28;20275;-74
2021/06/25 12:09:41;;;;;;;1.40;1.30;;;24.50;40.50;;;;;;10428416;28;20237;-76
2021/06/25 12:14:46;;;;;;;1.80;1.70;;;24.50;39.40;;;;;;10419323;28;20702;-76
2021/06/25 12:20:08;;;;;;;1.37;1.27;;;24.50;39.90;;;;;;10421841;28;20231;-75
2021/06/25 12:25:13;;;;;;;2.00;1.20;;;24.40;38.20;;;;;;10427070;28;20590;-75
2021/06/25 12:30:18;;;;;;;1.10;1.00;;;24.30;38.90;;;;;;10424035;28;20899;-75
2021/06/25 12:35:30;;;;;;;1.93;1.00;;;24.10;38.80;;;;;;10427673;28;20728;-74
2021/06/25 12:40:59;;;;;;;0.97;0.97;;;23.80;37.50;;;;;;10418718;28;20714;-74
2021/06/25 12:46:06;;;;;;;1.20;1.10;;;23.60;38.00;;;;;;10426576;28;20697;-79
2021/06/25 12:51:12;;;;;;;0.90;0.90;;;23.30;39.40;;;;;;10435487;28;20401;-80
2021/06/25 12:56:20;;;;;;;0.80;0.80;;;23.10;39.20;;;;;;10437488;28;20254;-80
2021/06/25 13:01:24;;;;;;;0.80;0.80;;;22.80;40.00;;;;;;10431328;28;20229;-80
2021/06/25 13:06:30;;;;;;;0.70;0.70;;;22.70;41.10;;;;;;10430840;28;20740;-78
2021/06/25 13:11:37;;;;;;;0.80;0.80;;;22.80;42.00;;;;;;10428277;28;20610;-79
2021/06/25 13:16:41;;;;;;;0.80;0.80;;;22.80;41.60;;;;;;10435990;28;20607;-79
2021/06/25 13:22:04;;;;;;;0.80;0.80;;;22.80;41.10;;;;;;10439720;28;20579;-80
2021/06/25 13:27:10;;;;;;;0.80;0.80;;;22.80;40.70;;;;;;10428334;28;20716;-79
2021/06/25 13:32:14;;;;;;;0.80;0.80;;;22.80;41.00;;;;;;10431718;28;20225;-78
2021/06/25 13:37:18;;;;;;;0.80;0.80;;;22.80;41.40;;;;;;10433718;28;20229;-77
2021/06/25 13:42:23;;;;;;;0.90;0.90;;;22.80;41.60;;;;;;10412928;28;20953;-77
2021/06/25 13:47:35;;;;;;;0.83;0.60;;;22.90;41.80;;;;;;10421038;28;20715;-77
2021/06/25 13:52:38;;;;;;;0.90;0.90;;;23.00;41.50;;;;;;10435240;28;20233;-76
2021/06/25 13:57:56;;;;;;;0.80;0.80;;;23.00;41.50;;;;;;10448064;28;20775;-75
2021/06/25 14:03:00;;;;;;;0.90;0.90;;;23.10;41.50;;;;;;10450468;28;20235;-75
2021/06/25 14:08:06;;;;;;;0.80;0.80;;;23.10;41.70;;;;;;10427076;28;20284;-75
2021/06/25 14:13:10;;;;;;;1.20;0.90;;;23.20;41.90;;;;;;10440138;28;20630;-76
2021/06/25 14:18:18;;;;;;;2.63;1.10;;;23.30;41.70;;;;;;10422217;28;20230;-72
2021/06/25 14:23:22;;;;;;;2.17;0.73;;;23.20;40.20;;;;;;10432081;28;20267;-74
2021/06/25 14:28:28;;;;;;;0.70;0.70;;;23.00;40.30;;;;;;10432965;28;20237;-77
2021/06/25 14:33:32;;;;;;;0.83;0.83;;;22.80;42.00;;;;;;10432106;28;20308;-76
2021/06/25 14:38:36;;;;;;;2.03;0.70;;;22.70;42.50;;;;;;10429798;28;20697;-76
2021/06/25 14:43:41;;;;;;;1.10;1.10;;;22.80;43.00;;;;;;10425478;28;20750;-75
2021/06/25 14:48:46;;;;;;;1.30;1.30;;;22.90;43.60;;;;;;10428903;28;20222;-74
2021/06/25 14:53:49;;;;;;;1.30;1.30;;;23.00;43.30;;;;;;10424683;28;20238;-75
2021/06/25 14:58:54;;;;;;;2.03;1.43;;;23.20;43.40;;;;;;10428075;28;20229;-75
2021/06/25 15:03:57;;;;;;;1.30;1.30;;;23.20;43.20;;;;;;10438830;28;20295;-75
2021/06/25 15:09:00;;;;;;;1.33;1.23;;;23.20;42.90;;;;;;10426006;28;20578;-75
2021/06/25 15:14:05;;;;;;;1.30;1.20;;;23.30;41.80;;;;;;10416517;28;20232;-75
2021/06/25 15:19:08;;;;;;;1.90;1.70;;;23.30;42.10;;;;;;10422559;28;20589;-75
2021/06/25 15:24:12;;;;;;;2.10;2.00;;;23.40;42.60;;;;;;10423281;28;20217;-75
2021/06/25 15:29:17;;;;;;;2.60;2.17;;;23.30;42.30;;;;;;10429005;28;20220;-77
2021/06/25 15:34:21;;;;;;;2.80;2.60;;;23.30;41.20;;;;;;10430220;28;20225;-75
2021/06/25 15:39:25;;;;;;;2.50;2.30;;;23.20;40.90;;;;;;10430364;28;20248;-76
2021/06/25 15:44:30;;;;;;;2.60;2.40;;;23.20;41.60;;;;;;10438927;28;20225;-77
2021/06/25 15:49:34;;;;;;;2.90;2.70;;;23.10;41.80;;;;;;10433561;28;20319;-75
2021/06/25 15:54:37;;;;;;;2.80;2.60;;;23.10;41.60;;;;;;10422661;28;20673;-75
2021/06/25 15:59:42;;;;;;;2.63;2.47;;;23.10;41.70;;;;;;10431658;28;20701;-75
2021/06/25 16:04:46;;;;;;;2.67;2.47;;;22.90;41.40;;;;;;10422024;28;20731;-75
2021/06/25 16:09:51;;;;;;;3.07;2.70;;;22.90;41.90;;;;;;10431276;28;20599;-75
2021/06/25 16:14:56;;;;;;;2.57;2.37;;;22.80;41.60;;;;;;10424746;28;20222;-75
2021/06/25 16:20:00;;;;;;;2.70;2.50;;;22.90;42.00;;;;;;10429372;28;20228;-74
2021/06/25 16:25:04;;;;;;;3.47;3.20;;;22.80;41.90;;;;;;10433947;28;20210;-74
2021/06/25 16:30:10;;;;;;;4.23;3.80;;;22.80;41.80;;;;;;10417343;28;20235;-74
2021/06/25 16:35:14;;;;;;;3.50;3.20;;;22.80;42.00;;;;;;10419619;28;20213;-74
2021/06/25 16:40:18;;;;;;;3.00;2.80;;;22.80;42.10;;;;;;10431687;28;20221;-74
2021/06/25 16:45:23;;;;;;;3.23;2.40;;;22.80;42.30;;;;;;10427609;28;20225;-74
2021/06/25 16:50:26;;;;;;;2.60;2.40;;;22.80;42.20;;;;;;10423154;28;20255;-74
2021/06/25 16:55:30;;;;;;;2.53;2.43;;;22.90;42.20;;;;;;10419207;28;20247;-74
2021/06/25 17:00:36;;;;;;;2.87;2.67;;;22.90;42.00;;;;;;10426736;28;20316;-74
2021/06/25 17:05:40;;;;;;;3.20;3.00;;;22.90;42.30;;;;;;10420886;28;20309;-74
2021/06/25 17:10:43;;;;;;;2.67;2.47;;;22.90;42.10;;;;;;10421181;28;20221;-73
2021/06/25 17:15:48;;;;;;;3.23;2.63;;;22.90;42.10;;;;;;10428183;28;20222;-73
2021/06/25 17:20:51;;;;;;;2.80;2.60;;;22.90;42.30;;;;;;10423903;28;20217;-74
2021/06/25 17:25:54;;;;;;;2.93;2.63;;;23.00;42.40;;;;;;10421332;28;20709;-73
2021/06/25 17:31:00;;;;;;;3.00;2.80;;;23.00;42.10;;;;;;10415437;28;20237;-76
2021/06/25 17:36:04;;;;;;;2.83;2.50;;;23.10;42.30;;;;;;10408391;28;20232;-79
2021/06/25 17:41:07;;;;;;;5.20;2.50;;;23.10;42.20;;;;;;10419853;28;20217;-79
2021/06/25 17:46:12;;;;;;;2.77;2.60;;;23.00;42.20;;;;;;10423130;28;20227;-79
2021/06/25 17:51:15;;;;;;;3.90;2.67;;;23.00;42.20;;;;;;10428870;28;20231;-78
2021/06/25 17:56:18;;;;;;;3.30;2.80;;;23.00;42.10;;;;;;10421023;28;20225;-80
2021/06/25 18:01:23;;;;;;;2.87;2.60;;;23.00;42.40;;;;;;10408449;28;21272;-76
2021/06/25 18:06:26;;;;;;;2.63;2.53;;;23.00;42.20;;;;;;10414458;28;20241;-79
2021/06/25 18:11:31;;;;;;;3.03;2.83;;;22.90;42.10;;;;;;10415859;28;20721;-78
2021/06/25 18:16:35;;;;;;;2.70;2.50;;;22.90;42.50;;;;;;10415770;28;20242;-76
2021/06/25 18:21:44;;;;;;;2.73;2.40;;;23.00;42.70;;;;;;10455828;22;20602;-81
2021/06/25 18:27:25;;;;;;;2.90;2.70;;;22.90;42.40;;;;;;10446925;28;20255;-81
2021/06/25 18:32:34;;;;;;;3.30;3.00;;;22.90;42.40;;;;;;10410313;28;20225;-81
2021/06/25 18:37:40;;;;;;;3.47;2.90;;;22.90;42.80;;;;;;10427467;28;20291;-78
2021/06/25 18:42:52;;;;;;;2.53;2.43;;;22.90;42.50;;;;;;10433166;28;20324;-79
2021/06/25 18:48:02;;;;;;;4.83;2.80;;;22.90;42.60;;;;;;10431448;28;20746;-79
2021/06/25 18:53:05;;;;;;;3.00;2.80;;;22.80;42.70;;;;;;10400754;28;20228;-79
2021/06/25 18:58:11;;;;;;;2.90;2.73;;;22.80;42.50;;;;;;10423381;28;20228;-78
2021/06/25 19:03:37;;;;;;;3.50;3.20;;;22.70;42.50;;;;;;10409772;28;20613;-81
2021/06/25 19:08:42;;;;;;;2.80;2.60;;;22.60;42.60;;;;;;10423643;28;20702;-79
2021/06/25 19:13:47;;;;;;;2.80;2.60;;;22.60;42.20;;;;;;10421966;28;20217;-77
2021/06/25 19:18:52;;;;;;;2.47;2.27;;;22.40;42.20;;;;;;10421364;28;20567;-77
2021/06/25 19:23:55;;;;;;;5.73;2.60;;;22.20;41.90;;;;;;10419406;28;20229;-77
2021/06/25 19:28:58;;;;;;;2.40;2.30;;;22.00;41.90;;;;;;10418419;28;20702;-77
2021/06/25 19:34:04;;;;;;;2.80;2.60;;;21.80;42.20;;;;;;10421492;28;20225;-79
2021/06/25 19:39:09;;;;;;;2.47;2.27;;;21.60;42.80;;;;;;10420012;28;20221;-78
2021/06/25 19:44:12;;;;;;;2.30;2.20;;;21.40;42.70;;;;;;10423322;28;20319;-79
2021/06/25 19:49:20;;;;;;;2.50;2.30;;;21.30;42.60;;;;;;10407605;28;20764;-79
2021/06/25 19:54:23;;;;;;;2.43;2.00;;;21.30;42.70;;;;;;10412625;28;20229;-78
2021/06/25 19:59:33;;;;;;;2.93;2.23;;;21.20;42.60;;;;;;10407713;28;20230;-79
2021/06/25 20:04:46;;;;;;;2.00;1.90;;;21.10;42.60;;;;;;10408608;28;20747;-86
2021/06/25 20:10:01;;;;;;;1.93;1.83;;;21.10;42.80;;;;;;10419060;28;20225;-85
2021/06/25 20:15:07;;;;;;;3.67;2.00;;;21.10;43.10;;;;;;10416483;28;20236;-85
2021/06/25 20:20:13;;;;;;;1.90;1.80;;;21.10;43.00;;;;;;10418295;28;20808;-86
2021/06/25 20:25:17;;;;;;;1.80;1.70;;;21.00;42.80;;;;;;10427725;28;20229;-86
2021/06/25 20:30:21;;;;;;;1.60;1.50;;;20.90;42.50;;;;;;10425507;28;20307;-86
2021/06/25 20:35:27;;;;;;;3.73;1.77;;;20.70;42.80;;;;;;10427264;28;20229;-77
2021/06/25 20:40:30;;;;;;;1.60;1.50;;;20.60;43.20;;;;;;10421539;28;20243;-77
2021/06/25 20:45:35;;;;;;;1.97;1.87;;;20.50;43.10;;;;;;10431688;28;20225;-86
2021/06/25 20:50:41;;;;;;;3.83;1.90;;;20.50;43.50;;;;;;10437674;28;20608;-87
2021/06/25 20:55:52;;;;;;;2.37;2.00;;;20.40;43.70;;;;;;10430118;28;20225;-86
2021/06/25 21:00:57;;;;;;;2.83;1.53;;;20.30;43.70;;;;;;10429119;28;20235;-86
2021/06/25 21:06:02;;;;;;;2.20;2.00;;;20.30;44.30;;;;;;10422682;28;20259;-86
2021/06/25 21:11:06;;;;;;;3.43;1.83;;;20.30;44.50;;;;;;10425147;28;20225;-86
2021/06/25 21:16:09;;;;;;;3.17;2.30;;;20.40;44.20;;;;;;10432055;28;20224;-80
2021/06/25 21:21:14;;;;;;;4.40;2.33;;;20.40;44.10;;;;;;10430660;28;20213;-77
2021/06/25 21:26:19;;;;;;;3.13;2.10;;;20.50;44.40;;;;;;10423147;28;20538;-77
2021/06/25 21:31:23;;;;;;;4.17;1.80;;;20.50;44.20;;;;;;10422859;28;20309;-77
2021/06/25 21:36:28;;;;;;;2.20;2.00;;;20.50;44.40;;;;;;10422612;28;20256;-77
2021/06/25 21:41:31;;;;;;;2.40;2.10;;;20.50;44.60;;;;;;10427396;28;20229;-77
2021/06/25 21:46:34;;;;;;;3.37;2.20;;;20.60;44.40;;;;;;10428306;28;20245;-76
2021/06/25 21:51:39;;;;;;;3.37;1.70;;;20.60;44.50;;;;;;10422730;28;20586;-77
2021/06/25 21:56:42;;;;;;;3.33;2.07;;;20.70;44.70;;;;;;10428734;28;20638;-77
2021/06/25 22:01:48;;;;;;;2.40;1.97;;;20.70;44.50;;;;;;10421480;28;20221;-76
2021/06/25 22:06:56;;;;;;;2.53;2.30;;;20.80;44.60;;;;;;10419552;28;20232;-76
2021/06/25 22:11:59;;;;;;;4.57;2.07;;;20.80;44.90;;;;;;10422406;28;20224;-76
2021/06/25 22:17:06;;;;;;;3.83;2.23;;;20.80;44.30;;;;;;10428786;28;20221;-77
2021/06/25 22:22:11;;;;;;;2.53;2.30;;;20.80;44.40;;;;;;10434555;28;20213;-76
2021/06/25 22:27:14;;;;;;;4.47;2.50;;;20.80;44.60;;;;;;10430665;28;20231;-76
2021/06/25 22:32:26;;;;;;;1.90;1.80;;;20.80;44.30;;;;;;10430093;28;20225;-76
2021/06/25 22:37:31;;;;;;;2.43;2.23;;;20.70;44.10;;;;;;10426827;28;20716;-76
2021/06/25 22:42:34;;;;;;;2.77;2.50;;;20.70;44.60;;;;;;10429120;28;20234;-76
2021/06/25 22:47:38;;;;;;;2.07;1.90;;;20.70;44.50;;;;;;10427441;28;20235;-76
2021/06/25 22:52:42;;;;;;;2.77;2.10;;;20.60;44.10;;;;;;10427093;28;20224;-76
2021/06/25 22:57:45;;;;;;;1.77;1.67;;;20.60;44.40;;;;;;10431631;28;20252;-77
2021/06/25 23:02:49;;;;;;;4.90;2.17;;;20.50;44.30;;;;;;10441227;23;20304;-74
2021/06/25 23:07:56;;;;;;;1.87;1.77;;;20.50;44.50;;;;;;10494864;28;20738;-74
2021/06/25 23:13:02;;;;;;;2.93;2.30;;;20.50;44.50;;;;;;10494836;28;20238;-75
2021/06/25 23:18:06;;;;;;;2.37;2.27;;;20.40;44.40;;;;;;10493763;28;20281;-75
2021/06/25 23:23:10;;;;;;;2.37;2.10;;;20.40;44.20;;;;;;10493595;28;20220;-75
2021/06/25 23:28:13;;;;;;;2.63;2.17;;;20.40;44.10;;;;;;10494829;28;20212;-74
2021/06/25 23:33:17;;;;;;;10.00;2.80;;;20.40;44.10;;;;;;10494298;28;20247;-74
2021/06/25 23:38:21;;;;;;;4.60;2.60;;;20.30;44.40;;;;;;10494025;28;20221;-74
2021/06/25 23:43:25;;;;;;;3.03;2.47;;;20.30;44.40;;;;;;10493940;28;20232;-75
2021/06/25 23:48:28;;;;;;;4.13;2.47;;;20.20;44.00;;;;;;10493655;28;20235;-74
2021/06/25 23:53:32;;;;;;;3.77;2.87;;;20.20;44.20;;;;;;10487435;28;20236;-74
2021/06/25 23:58:35;;;;;;;3.50;2.70;;;20.10;44.30;;;;;;10493015;28;20234;-75
